Time;durP1;ratioP1;P1;durP2;ratioP2;P2;SDS_P1;SDS_P2;PMS_P1;PMS_P2;Temp;Humidity;BMP_temperature;BMP_pressure;BME280_temperature;BME280_humidity;BME280_pressure;Samples;Min_cycle;Max_cycle;Signal;HPM_P1;HPM_P2
2022/01/16 00:05:05;;;;;;;133.57;56.33;;;;;;;;;;4394468;32;20699;-51
2022/01/16 00:07:30;;;;;;;149.83;63.13;;;;;;;;;;4402726;32;20853;-51
2022/01/16 00:09:56;;;;;;;141.73;60.13;;;;;;;;;;4387770;32;20285;-51
2022/01/16 00:12:23;;;;;;;157.73;61.10;;;;;;;;;;4394847;32;20233;-51
2022/01/16 00:14:50;;;;;;;141.80;61.10;;;;;;;;;;4386401;32;20234;-52
2022/01/16 00:17:15;;;;;;;129.20;57.10;;;;;;;;;;4399959;32;20259;-51
2022/01/16 00:19:41;;;;;;;139.33;63.17;;;;;;;;;;4392840;32;20303;-52
2022/01/16 00:22:12;;;;;;;214.10;85.53;;;;;;;;;;4403811;32;20319;-52
2022/01/16 00:24:38;;;;;;;260.93;101.93;;;;;;;;;;4386242;32;20249;-52
2022/01/16 00:27:04;;;;;;;227.33;94.63;;;;;;;;;;4389957;32;20336;-51
2022/01/16 00:29:31;;;;;;;153.83;65.73;;;;;;;;;;4388048;32;20313;-53
2022/01/16 00:31:56;;;;;;;160.67;64.63;;;;;;;;;;4389702;32;20693;-52
2022/01/16 00:34:22;;;;;;;127.67;58.37;;;;;;;;;;4390734;32;20806;-52
2022/01/16 00:36:48;;;;;;;120.93;55.37;;;;;;;;;;4390825;32;20229;-51
2022/01/16 00:39:13;;;;;;;93.43;44.00;;;;;;;;;;4393937;32;20303;-52
2022/01/16 00:41:40;;;;;;;103.80;48.73;;;;;;;;;;4417237;32;20595;-51
2022/01/16 00:44:06;;;;;;;103.53;50.70;;;;;;;;;;4401514;32;20637;-51
2022/01/16 00:46:32;;;;;;;95.47;50.07;;;;;;;;;;4398906;32;20258;-51
2022/01/16 00:48:58;;;;;;;95.47;46.87;;;;;;;;;;4394617;32;20733;-51
2022/01/16 00:51:25;;;;;;;103.00;45.50;;;;;;;;;;4387042;32;20287;-51
2022/01/16 00:53:50;;;;;;;94.27;45.30;;;;;;;;;;4393356;32;20334;-51
2022/01/16 00:56:16;;;;;;;89.53;46.20;;;;;;;;;;4396087;32;20224;-52
2022/01/16 00:58:43;;;;;;;85.10;41.93;;;;;;;;;;4395908;32;20285;-51
2022/01/16 01:01:09;;;;;;;78.60;42.10;;;;;;;;;;4401802;32;20512;-51
2022/01/16 01:03:35;;;;;;;93.70;45.10;;;;;;;;;;4402634;32;20210;-52
2022/01/16 01:06:00;;;;;;;101.73;49.80;;;;;;;;;;4401466;32;20679;-52
2022/01/16 01:08:28;;;;;;;100.67;49.63;;;;;;;;;;4403887;32;20245;-51
2022/01/16 01:10:54;;;;;;;109.63;51.60;;;;;;;;;;4401855;32;20344;-52
2022/01/16 01:13:31;;;;;;;111.27;52.23;;;;;;;;;;4398356;32;20289;-54
2022/01/16 01:16:04;;;;;;;133.47;70.10;;;;;;;;;;4386326;32;20245;-51
2022/01/16 01:18:34;;;;;;;122.30;57.47;;;;;;;;;;4394148;32;20601;-52
2022/01/16 01:21:02;;;;;;;118.77;60.00;;;;;;;;;;4386518;32;20321;-53
2022/01/16 01:23:29;;;;;;;118.67;55.90;;;;;;;;;;4393940;32;20268;-53
2022/01/16 01:25:55;;;;;;;104.20;51.97;;;;;;;;;;4386241;32;20259;-52
2022/01/16 01:28:21;;;;;;;104.37;49.80;;;;;;;;;;4396809;32;20226;-53
2022/01/16 01:30:46;;;;;;;95.23;43.73;;;;;;;;;;4386525;32;20673;-52
2022/01/16 01:33:13;;;;;;;107.17;48.17;;;;;;;;;;4392530;32;20309;-52
2022/01/16 01:35:40;;;;;;;96.07;44.10;;;;;;;;;;4386000;32;20433;-51
2022/01/16 01:38:07;;;;;;;80.47;41.87;;;;;;;;;;4398361;32;20646;-51
2022/01/16 01:40:34;;;;;;;93.43;42.80;;;;;;;;;;4386599;32;20302;-51
2022/01/16 01:51:16;;;;;;;94.87;36.33;;;;;;;;;;4404383;32;20263;-52
2022/01/16 01:53:42;;;;;;;77.97;33.93;;;;;;;;;;4407362;32;20237;-51
2022/01/16 01:56:12;;;;;;;98.43;47.90;;;;;;;;;;4407481;32;20704;-52
2022/01/16 01:58:38;;;;;;;78.67;33.30;;;;;;;;;;4401191;32;20213;-51
2022/01/16 02:01:04;;;;;;;63.47;30.07;;;;;;;;;;4404449;32;20689;-51
2022/01/16 02:06:05;;;;;;;61.87;28.80;;;;;;;;;;4389061;32;20256;-52
2022/01/16 02:08:30;;;;;;;59.60;26.97;;;;;;;;;;4397352;32;20688;-51
2022/01/16 02:10:57;;;;;;;63.00;27.30;;;;;;;;;;4388999;32;20281;-50
2022/01/16 02:13:28;;;;;;;58.23;26.33;;;;;;;;;;4396553;32;20309;-52
2022/01/16 02:34:35;;;;;;;21.63;9.60;;;;;;;;;;4390193;32;20567;-50
2022/01/16 02:37:06;;;;;;;19.67;8.67;;;;;;;;;;4390667;32;20261;-51
2022/01/16 02:39:36;;;;;;;27.20;9.87;;;;;;;;;;4403027;32;20260;-50
2022/01/16 02:42:05;;;;;;;22.73;9.30;;;;;;;;;;4406297;32;20267;-49
2022/01/16 02:44:35;;;;;;;18.77;8.87;;;;;;;;;;4390466;32;20313;-50
2022/01/16 02:47:02;;;;;;;22.27;9.03;;;;;;;;;;4396815;32;20261;-52
2022/01/16 02:49:30;;;;;;;15.80;7.17;;;;;;;;;;4399094;32;20237;-50
2022/01/16 02:52:05;;;;;;;14.50;7.47;;;;;;;;;;4405478;32;20264;-50
2022/01/16 02:54:35;;;;;;;21.87;11.07;;;;;;;;;;4400475;32;20318;-50
2022/01/16 02:57:02;;;;;;;14.33;7.33;;;;;;;;;;4396422;32;20340;-50
2022/01/16 02:59:28;;;;;;;10.90;7.20;;;;;;;;;;4390094;32;20669;-50
2022/01/16 03:01:54;;;;;;;12.70;6.47;;;;;;;;;;4390950;32;20316;-51
2022/01/16 03:04:19;;;;;;;30.17;11.43;;;;;;;;;;4391934;32;20288;-51
2022/01/16 03:06:45;;;;;;;28.27;13.30;;;;;;;;;;4387668;32;20405;-50
2022/01/16 03:09:11;;;;;;;38.90;17.93;;;;;;;;;;4389214;32;20672;-51
2022/01/16 03:11:46;;;;;;;50.57;24.00;;;;;;;;;;4388002;32;20226;-51
2022/01/16 03:14:18;;;;;;;62.83;27.60;;;;;;;;;;4388612;32;20706;-51
2022/01/16 03:16:48;;;;;;;56.43;25.27;;;;;;;;;;4398217;32;20225;-51
2022/01/16 03:22:08;;;;;;;61.47;25.83;;;;;;;;;;4397947;32;20637;-49
2022/01/16 03:24:36;;;;;;;56.37;21.77;;;;;;;;;;4398670;32;20225;-50
2022/01/16 03:27:14;;;;;;;71.53;26.43;;;;;;;;;;4405712;32;20251;-51
2022/01/16 03:29:41;;;;;;;58.83;27.93;;;;;;;;;;4418072;32;20280;-50
2022/01/16 03:32:09;;;;;;;59.73;25.47;;;;;;;;;;4417639;32;20569;-50
2022/01/16 03:34:34;;;;;;;57.90;23.33;;;;;;;;;;4414861;32;20362;-50
2022/01/16 03:37:00;;;;;;;61.00;26.00;;;;;;;;;;4403096;32;20311;-51
2022/01/16 03:39:26;;;;;;;41.07;19.33;;;;;;;;;;4403184;32;20311;-53
2022/01/16 03:41:52;;;;;;;37.07;15.40;;;;;;;;;;4402401;32;20217;-50
2022/01/16 03:44:18;;;;;;;34.17;14.90;;;;;;;;;;4401536;32;20232;-50
2022/01/16 03:46:44;;;;;;;32.83;17.40;;;;;;;;;;4396756;32;20248;-51
2022/01/16 03:49:14;;;;;;;30.43;14.30;;;;;;;;;;4403569;32;20327;-51
2022/01/16 03:51:41;;;;;;;29.13;13.63;;;;;;;;;;4402342;32;20292;-50
2022/01/16 03:54:08;;;;;;;27.73;14.53;;;;;;;;;;4418141;32;20643;-51
2022/01/16 03:56:35;;;;;;;34.70;14.83;;;;;;;;;;4401132;32;20267;-51
2022/01/16 03:59:00;;;;;;;36.03;18.30;;;;;;;;;;4417094;32;20383;-51
2022/01/16 04:01:26;;;;;;;56.43;25.73;;;;;;;;;;4418203;32;20253;-52
2022/01/16 04:03:53;;;;;;;76.07;31.27;;;;;;;;;;4416455;32;20712;-51
2022/01/16 04:06:19;;;;;;;76.30;31.83;;;;;;;;;;4416783;32;20252;-53
2022/01/16 04:08:50;;;;;;;63.63;31.83;;;;;;;;;;4401426;32;20233;-52
2022/01/16 04:11:16;;;;;;;84.47;33.80;;;;;;;;;;4401821;32;20225;-52
2022/01/16 04:14:02;;;;;;;82.13;36.60;;;;;;;;;;4415467;32;20314;-53
2022/01/16 04:16:28;;;;;;;75.67;33.80;;;;;;;;;;4407670;32;20744;-51
2022/01/16 04:18:54;;;;;;;81.60;36.17;;;;;;;;;;4406340;32;20380;-52
2022/01/16 04:21:22;;;;;;;74.27;34.17;;;;;;;;;;4387483;32;20575;-51
2022/01/16 04:23:48;;;;;;;83.77;34.53;;;;;;;;;;4400697;32;20218;-50
2022/01/16 04:26:15;;;;;;;82.37;37.20;;;;;;;;;;4402743;32;20710;-50
2022/01/16 04:28:41;;;;;;;83.97;37.03;;;;;;;;;;4401718;32;20289;-50
2022/01/16 04:31:07;;;;;;;82.00;35.13;;;;;;;;;;4401897;32;20603;-51
2022/01/16 04:33:33;;;;;;;82.27;37.87;;;;;;;;;;4414408;32;20572;-51
2022/01/16 04:35:58;;;;;;;89.37;41.37;;;;;;;;;;4417585;32;20249;-52
2022/01/16 04:38:24;;;;;;;93.03;41.03;;;;;;;;;;4403117;32;20316;-51
2022/01/16 04:43:54;;;;;;;92.33;44.83;;;;;;;;;;4411465;32;20585;-50
2022/01/16 04:46:21;;;;;;;98.60;44.33;;;;;;;;;;4411170;32;20304;-51
2022/01/16 04:48:48;;;;;;;80.80;38.90;;;;;;;;;;4413880;32;20201;-51
2022/01/16 04:51:13;;;;;;;98.50;44.80;;;;;;;;;;4417076;32;20359;-52
2022/01/16 04:53:40;;;;;;;101.10;45.53;;;;;;;;;;4412680;32;20300;-53
2022/01/16 04:56:06;;;;;;;100.80;41.47;;;;;;;;;;4396512;32;20251;-51
2022/01/16 04:58:33;;;;;;;92.70;47.17;;;;;;;;;;4387622;32;20585;-52
2022/01/16 05:00:58;;;;;;;108.90;49.43;;;;;;;;;;4386608;32;20272;-51
2022/01/16 05:03:25;;;;;;;101.60;50.57;;;;;;;;;;4397933;32;20288;-54
2022/01/16 05:05:51;;;;;;;107.90;50.77;;;;;;;;;;4401158;32;20279;-53
2022/01/16 05:08:16;;;;;;;88.37;42.00;;;;;;;;;;4401869;32;20710;-49
2022/01/16 05:10:42;;;;;;;80.07;39.43;;;;;;;;;;4401815;32;20256;-50
2022/01/16 05:18:33;;;;;;;83.33;41.93;;;;;;;;;;4413423;32;20300;-50
2022/01/16 05:20:59;;;;;;;97.20;44.23;;;;;;;;;;4416933;32;20569;-52
2022/01/16 05:23:25;;;;;;;88.07;43.57;;;;;;;;;;4416010;32;20636;-52
2022/01/16 05:25:51;;;;;;;116.67;48.43;;;;;;;;;;4398045;32;20346;-51
2022/01/16 05:28:16;;;;;;;104.07;47.63;;;;;;;;;;4407096;32;20272;-52
2022/01/16 05:30:42;;;;;;;113.77;45.10;;;;;;;;;;4416580;32;20688;-51
2022/01/16 05:33:08;;;;;;;71.47;37.23;;;;;;;;;;4415904;32;20296;-51
2022/01/16 05:35:35;;;;;;;71.53;36.87;;;;;;;;;;4402279;32;20233;-51
2022/01/16 05:38:00;;;;;;;71.53;39.97;;;;;;;;;;4400848;32;20761;-52
2022/01/16 05:40:26;;;;;;;87.57;38.47;;;;;;;;;;4401357;32;20269;-52
2022/01/16 05:42:51;;;;;;;79.23;42.13;;;;;;;;;;4408222;32;20550;-50
2022/01/16 05:45:17;;;;;;;94.60;43.80;;;;;;;;;;4406965;32;20213;-52
2022/01/16 05:47:42;;;;;;;102.50;45.77;;;;;;;;;;4394127;32;20210;-51
2022/01/16 05:50:08;;;;;;;116.33;58.67;;;;;;;;;;4401407;32;20390;-51
2022/01/16 05:52:34;;;;;;;127.23;60.53;;;;;;;;;;4406696;32;20673;-50
2022/01/16 05:54:59;;;;;;;128.53;57.20;;;;;;;;;;4400236;32;20805;-52
2022/01/16 05:57:24;;;;;;;111.27;57.30;;;;;;;;;;4395782;32;20261;-51
2022/01/16 05:59:50;;;;;;;128.03;62.47;;;;;;;;;;4416584;32;20260;-50
2022/01/16 06:02:16;;;;;;;111.07;55.13;;;;;;;;;;4411871;32;20233;-50
2022/01/16 06:04:42;;;;;;;88.80;49.20;;;;;;;;;;4390501;32;20240;-52
2022/01/16 06:07:07;;;;;;;109.13;45.37;;;;;;;;;;4391865;32;20236;-52
2022/01/16 06:09:33;;;;;;;117.27;54.77;;;;;;;;;;4401243;32;20352;-53
2022/01/16 06:11:59;;;;;;;131.67;57.67;;;;;;;;;;4401610;32;20255;-51
2022/01/16 06:14:25;;;;;;;111.57;51.87;;;;;;;;;;4413598;32;20683;-52
2022/01/16 06:16:51;;;;;;;119.53;53.33;;;;;;;;;;4415911;32;20333;-51
2022/01/16 06:19:18;;;;;;;118.63;53.60;;;;;;;;;;4415929;32;20205;-51
2022/01/16 06:21:43;;;;;;;138.07;65.67;;;;;;;;;;4416318;32;20240;-52
2022/01/16 06:24:09;;;;;;;114.70;54.07;;;;;;;;;;4402786;32;20243;-51
2022/01/16 06:26:34;;;;;;;110.27;51.07;;;;;;;;;;4400703;32;20245;-50
2022/01/16 06:29:00;;;;;;;105.20;52.77;;;;;;;;;;4415887;32;20330;-50
2022/01/16 06:31:26;;;;;;;130.50;63.53;;;;;;;;;;4408452;32;20298;-50
2022/01/16 06:33:51;;;;;;;139.93;64.07;;;;;;;;;;4415268;32;20263;-52
2022/01/16 06:36:17;;;;;;;103.27;53.10;;;;;;;;;;4419166;32;20294;-50
2022/01/16 06:38:42;;;;;;;102.17;46.93;;;;;;;;;;4409352;32;20307;-52
2022/01/16 06:41:09;;;;;;;73.80;34.53;;;;;;;;;;4403903;32;20229;-50
2022/01/16 06:43:35;;;;;;;99.90;47.03;;;;;;;;;;4397428;32;20209;-49
2022/01/16 06:46:00;;;;;;;89.33;45.23;;;;;;;;;;4390705;32;20961;-51
2022/01/16 06:48:26;;;;;;;112.10;50.27;;;;;;;;;;4414804;32;20454;-51
2022/01/16 06:50:52;;;;;;;106.67;54.53;;;;;;;;;;4413715;32;20251;-51
2022/01/16 06:53:17;;;;;;;137.23;56.70;;;;;;;;;;4410951;32;20358;-51
2022/01/16 06:55:42;;;;;;;111.47;54.00;;;;;;;;;;4399162;32;20222;-51
2022/01/16 06:58:08;;;;;;;133.07;57.00;;;;;;;;;;4407556;32;20714;-51
2022/01/16 07:00:33;;;;;;;129.17;56.40;;;;;;;;;;4418568;32;20260;-52
2022/01/16 07:02:59;;;;;;;108.83;49.27;;;;;;;;;;4397354;32;20653;-51
2022/01/16 07:05:25;;;;;;;101.63;46.40;;;;;;;;;;4408200;32;20315;-50
2022/01/16 07:07:51;;;;;;;103.23;45.63;;;;;;;;;;4399845;32;20572;-50
2022/01/16 07:10:17;;;;;;;98.07;49.03;;;;;;;;;;4403246;32;20234;-51
2022/01/16 07:12:42;;;;;;;105.67;49.33;;;;;;;;;;4410401;32;20305;-50
2022/01/16 07:15:09;;;;;;;113.37;56.73;;;;;;;;;;4418658;32;20386;-51
2022/01/16 07:17:35;;;;;;;125.03;63.97;;;;;;;;;;4412148;32;20263;-52
2022/01/16 07:20:00;;;;;;;117.03;56.80;;;;;;;;;;4402550;32;20675;-51
2022/01/16 07:22:26;;;;;;;112.53;55.77;;;;;;;;;;4407864;32;20291;-51
2022/01/16 07:24:51;;;;;;;118.43;58.70;;;;;;;;;;4418682;32;20264;-51
2022/01/16 07:27:17;;;;;;;118.43;55.70;;;;;;;;;;4412599;32;20249;-50
2022/01/16 07:29:43;;;;;;;98.73;46.23;;;;;;;;;;4402727;32;20301;-51
2022/01/16 07:32:08;;;;;;;91.57;47.73;;;;;;;;;;4406414;32;20243;-51
2022/01/16 07:34:34;;;;;;;89.60;45.80;;;;;;;;;;4419168;32;20356;-51
2022/01/16 07:37:00;;;;;;;70.90;34.20;;;;;;;;;;4414408;32;20347;-51
2022/01/16 07:39:25;;;;;;;54.63;28.07;;;;;;;;;;4399632;32;20226;-51
2022/01/16 07:41:51;;;;;;;55.97;28.20;;;;;;;;;;4390918;32;20308;-51
2022/01/16 07:44:16;;;;;;;60.20;31.40;;;;;;;;;;4418757;32;20329;-50
2022/01/16 07:46:42;;;;;;;54.77;27.40;;;;;;;;;;4410999;32;20551;-51
2022/01/16 07:49:07;;;;;;;51.03;25.10;;;;;;;;;;4406863;32;20296;-50
2022/01/16 07:51:33;;;;;;;63.10;30.60;;;;;;;;;;4403791;32;20312;-51
2022/01/16 07:53:59;;;;;;;55.10;30.23;;;;;;;;;;4409780;32;20213;-51
2022/01/16 07:56:24;;;;;;;59.00;30.57;;;;;;;;;;4397843;32;20332;-50
2022/01/16 07:58:50;;;;;;;70.60;37.37;;;;;;;;;;4416731;32;20365;-50
2022/01/16 08:01:15;;;;;;;79.50;36.57;;;;;;;;;;4418506;32;20233;-51
2022/01/16 08:03:41;;;;;;;119.37;51.73;;;;;;;;;;4405598;32;20299;-51
2022/01/16 08:06:07;;;;;;;87.03;38.70;;;;;;;;;;4403574;32;20260;-52
2022/01/16 08:08:32;;;;;;;102.03;38.03;;;;;;;;;;4406871;32;20301;-52
2022/01/16 08:10:57;;;;;;;76.47;31.20;;;;;;;;;;4403293;32;20260;-51
2022/01/16 08:13:23;;;;;;;56.10;29.30;;;;;;;;;;4405482;32;20273;-50
2022/01/16 08:15:49;;;;;;;60.87;29.87;;;;;;;;;;4403276;32;20406;-51
2022/01/16 08:18:14;;;;;;;50.37;27.87;;;;;;;;;;4412689;32;20372;-52
2022/01/16 08:20:40;;;;;;;51.90;24.67;;;;;;;;;;4416460;32;20536;-51
2022/01/16 08:23:06;;;;;;;49.67;26.63;;;;;;;;;;4397978;32;20399;-51
2022/01/16 08:25:31;;;;;;;51.17;26.77;;;;;;;;;;4387671;32;20241;-51
2022/01/16 08:27:57;;;;;;;51.37;28.23;;;;;;;;;;4396254;32;20328;-52
2022/01/16 08:30:23;;;;;;;62.93;28.37;;;;;;;;;;4401840;32;20316;-50
2022/01/16 08:32:48;;;;;;;49.50;26.93;;;;;;;;;;4396538;32;20236;-50
2022/01/16 08:35:14;;;;;;;41.13;21.27;;;;;;;;;;4417474;32;20335;-51
2022/01/16 08:37:40;;;;;;;51.27;23.03;;;;;;;;;;4411456;32;20321;-50
2022/01/16 08:40:06;;;;;;;40.00;24.10;;;;;;;;;;4402531;32;20244;-50
2022/01/16 08:42:32;;;;;;;46.47;25.53;;;;;;;;;;4408923;32;20245;-51
2022/01/16 08:44:58;;;;;;;44.70;21.93;;;;;;;;;;4418632;32;20337;-52
2022/01/16 08:47:26;;;;;;;44.63;21.67;;;;;;;;;;4411957;32;20221;-51
2022/01/16 08:49:52;;;;;;;39.70;20.43;;;;;;;;;;4406392;32;20538;-51
2022/01/16 08:52:19;;;;;;;39.93;21.43;;;;;;;;;;4407529;32;20260;-51
2022/01/16 08:54:45;;;;;;;41.53;22.13;;;;;;;;;;4406245;32;20222;-51
2022/01/16 08:57:10;;;;;;;43.20;25.60;;;;;;;;;;4396761;32;20504;-51
2022/01/16 08:59:36;;;;;;;44.23;23.33;;;;;;;;;;4403312;32;20672;-51
2022/01/16 09:02:01;;;;;;;57.17;25.90;;;;;;;;;;4398730;32;20396;-51
2022/01/16 09:04:27;;;;;;;61.60;36.70;;;;;;;;;;4403341;32;20292;-51
2022/01/16 09:06:52;;;;;;;52.77;29.03;;;;;;;;;;4404474;32;20375;-50
2022/01/16 09:09:18;;;;;;;57.37;31.53;;;;;;;;;;4406511;32;20698;-48
2022/01/16 09:11:43;;;;;;;66.63;34.07;;;;;;;;;;4403363;32;20233;-49
2022/01/16 09:14:09;;;;;;;51.83;30.40;;;;;;;;;;4417530;32;20330;-49
2022/01/16 09:16:34;;;;;;;67.63;35.53;;;;;;;;;;4418802;32;20263;-51
2022/01/16 09:19:00;;;;;;;61.00;31.30;;;;;;;;;;4418391;32;20325;-51
2022/01/16 09:21:25;;;;;;;50.40;26.83;;;;;;;;;;4400539;32;20578;-50
2022/01/16 09:23:51;;;;;;;45.27;25.20;;;;;;;;;;4417039;32;20276;-50
2022/01/16 09:26:17;;;;;;;53.07;28.20;;;;;;;;;;4418579;32;20260;-49
2022/01/16 09:28:43;;;;;;;70.43;36.37;;;;;;;;;;4417045;32;20318;-51
2022/01/16 09:31:09;;;;;;;49.53;29.50;;;;;;;;;;4418060;32;20292;-50
2022/01/16 09:33:35;;;;;;;60.23;28.40;;;;;;;;;;4418506;32;20644;-50
2022/01/16 09:36:04;;;;;;;47.13;22.70;;;;;;;;;;4418710;32;20255;-51
2022/01/16 09:38:30;;;;;;;49.50;26.40;;;;;;;;;;4413290;32;20388;-52
2022/01/16 09:40:56;;;;;;;38.97;20.77;;;;;;;;;;4403094;32;20600;-51
2022/01/16 09:43:22;;;;;;;37.20;20.17;;;;;;;;;;4403092;32;20319;-52
2022/01/16 09:45:48;;;;;;;49.30;22.47;;;;;;;;;;4400335;32;20241;-51
2022/01/16 09:48:15;;;;;;;41.40;20.27;;;;;;;;;;4408305;32;20300;-52
2022/01/16 09:50:40;;;;;;;42.80;22.03;;;;;;;;;;4418167;32;20301;-51
2022/01/16 09:53:06;;;;;;;46.77;23.53;;;;;;;;;;4416186;32;20342;-51
2022/01/16 09:55:31;;;;;;;43.73;20.63;;;;;;;;;;4397864;32;20714;-51
2022/01/16 09:57:57;;;;;;;33.77;19.13;;;;;;;;;;4389271;32;20247;-53
2022/01/16 10:00:24;;;;;;;53.20;21.70;;;;;;;;;;4402424;32;20342;-54
2022/01/16 10:02:51;;;;;;;30.90;17.33;;;;;;;;;;4400238;32;20520;-53
2022/01/16 10:05:35;;;;;;;43.43;17.53;;;;;;;;;;4400422;32;20323;-55
2022/01/16 10:08:06;;;;;;;39.47;18.87;;;;;;;;;;4394194;32;20319;-53
2022/01/16 10:10:38;;;;;;;34.83;18.40;;;;;;;;;;4408861;32;20313;-55
2022/01/16 10:13:24;;;;;;;29.70;11.83;;;;;;;;;;4405054;32;20627;-55
2022/01/16 10:15:57;;;;;;;70.33;28.93;;;;;;;;;;4396035;32;20628;-53
2022/01/16 10:18:55;;;;;;;666.07;344.70;;;;;;;;;;4397627;32;20351;-54
2022/01/16 10:21:38;;;;;;;37.43;16.53;;;;;;;;;;4399204;32;20310;-53
2022/01/16 10:24:27;;;;;;;37.87;17.70;;;;;;;;;;4397157;32;20641;-54
2022/01/16 10:27:08;;;;;;;62.40;26.63;;;;;;;;;;4418503;32;20341;-52
2022/01/16 10:29:49;;;;;;;79.73;35.37;;;;;;;;;;4388842;32;20361;-55
2022/01/16 10:32:19;;;;;;;31.87;14.67;;;;;;;;;;4389790;32;20336;-55
2022/01/16 10:34:48;;;;;;;31.03;16.67;;;;;;;;;;4388278;32;20585;-55
2022/01/16 10:37:30;;;;;;;36.90;16.37;;;;;;;;;;4404557;32;20324;-53
2022/01/16 10:40:12;;;;;;;33.30;15.53;;;;;;;;;;4405941;32;20640;-54
2022/01/16 10:42:39;;;;;;;33.07;12.00;;;;;;;;;;4412492;32;20606;-51
2022/01/16 10:45:05;;;;;;;25.03;12.40;;;;;;;;;;4404699;32;20628;-52
2022/01/16 10:47:45;;;;;;;26.07;10.93;;;;;;;;;;4404843;32;20311;-53
2022/01/16 10:50:22;;;;;;;34.17;13.57;;;;;;;;;;4406173;32;20330;-53
2022/01/16 10:52:59;;;;;;;29.83;12.10;;;;;;;;;;4413553;32;20405;-53
2022/01/16 10:55:33;;;;;;;32.77;15.50;;;;;;;;;;4398283;32;20217;-53
2022/01/16 10:58:05;;;;;;;31.03;14.07;;;;;;;;;;4418439;32;20233;-53
2022/01/16 11:00:31;;;;;;;42.70;15.83;;;;;;;;;;4419886;32;20788;-54
2022/01/16 11:02:59;;;;;;;30.67;14.33;;;;;;;;;;4402883;32;20737;-53
2022/01/16 11:05:27;;;;;;;55.77;16.73;;;;;;;;;;4408905;32;20660;-53
2022/01/16 11:08:01;;;;;;;19.20;11.17;;;;;;;;;;4419875;32;20233;-53
2022/01/16 11:10:30;;;;;;;22.00;12.50;;;;;;;;;;4419489;32;20284;-53
2022/01/16 11:12:58;;;;;;;23.57;11.67;;;;;;;;;;4407068;32;20290;-53
2022/01/16 11:15:24;;;;;;;25.80;13.23;;;;;;;;;;4417996;32;20214;-53
2022/01/16 11:17:51;;;;;;;26.63;12.87;;;;;;;;;;4418074;32;20308;-53
2022/01/16 11:20:18;;;;;;;24.87;11.10;;;;;;;;;;4412669;32;20405;-53
2022/01/16 11:22:59;;;;;;;21.17;11.70;;;;;;;;;;4404536;32;20556;-52
2022/01/16 11:25:31;;;;;;;31.50;13.13;;;;;;;;;;4407808;32;20691;-53
2022/01/16 11:28:03;;;;;;;89.27;38.30;;;;;;;;;;4404415;32;20563;-54
2022/01/16 11:30:33;;;;;;;28.37;14.57;;;;;;;;;;4408504;32;20833;-52
2022/01/16 11:33:00;;;;;;;61.23;23.53;;;;;;;;;;4408158;32;20218;-52
2022/01/16 11:35:27;;;;;;;45.10;22.97;;;;;;;;;;4396687;32;20802;-53
2022/01/16 11:37:53;;;;;;;30.10;16.00;;;;;;;;;;4398463;32;20230;-53
2022/01/16 11:40:27;;;;;;;41.03;18.33;;;;;;;;;;4395479;32;20232;-54
2022/01/16 11:43:23;;;;;;;33.07;14.77;;;;;;;;;;4392160;32;20301;-53
2022/01/16 11:45:51;;;;;;;23.90;14.00;;;;;;;;;;4399910;32;20225;-53
2022/01/16 11:48:36;;;;;;;27.07;13.10;;;;;;;;;;4402384;32;20245;-53
2022/01/16 11:51:04;;;;;;;99.13;38.60;;;;;;;;;;4411485;32;20393;-52
2022/01/16 11:53:55;;;;;;;106.63;47.83;;;;;;;;;;4398337;32;20434;-53
2022/01/16 11:56:41;;;;;;;34.30;17.37;;;;;;;;;;4411663;32;20339;-53
2022/01/16 11:59:32;;;;;;;28.03;15.00;;;;;;;;;;4389484;32;20474;-53
2022/01/16 12:02:19;;;;;;;26.97;14.00;;;;;;;;;;4408821;32;20209;-52
2022/01/16 12:04:44;;;;;;;40.00;13.80;;;;;;;;;;4388281;32;20719;-55
2022/01/16 12:07:12;;;;;;;20.57;13.10;;;;;;;;;;4406895;32;20752;-53
2022/01/16 12:10:19;;;;;;;23.33;12.07;;;;;;;;;;4388115;32;20847;-54
2022/01/16 12:12:29;;;;;;;23.17;10.93;;;;;;;;;;4390114;32;20596;-54
2022/01/16 12:15:08;;;;;;;23.67;12.90;;;;;;;;;;4417959;32;20630;-53
2022/01/16 12:20:14;;;;;;;33.03;14.23;;;;;;;;;;4391618;32;20210;-52
2022/01/16 12:23:04;;;;;;;23.30;14.13;;;;;;;;;;4404981;32;20266;-53
2022/01/16 12:25:41;;;;;;;74.50;31.87;;;;;;;;;;4407208;32;20316;-52
2022/01/16 12:28:09;;;;;;;132.03;47.43;;;;;;;;;;4395451;32;20216;-52
2022/01/16 12:30:44;;;;;;;249.37;93.10;;;;;;;;;;4397335;32;20251;-53
2022/01/16 12:33:15;;;;;;;55.47;20.07;;;;;;;;;;4397638;32;20241;-53
2022/01/16 12:35:40;;;;;;;373.83;125.00;;;;;;;;;;4408103;32;20229;-56
2022/01/16 12:38:12;;;;;;;57.50;25.17;;;;;;;;;;4395622;32;20420;-54
2022/01/16 12:40:38;;;;;;;42.97;19.27;;;;;;;;;;4398302;32;20221;-55
2022/01/16 12:43:08;;;;;;;64.80;26.00;;;;;;;;;;4391550;32;20241;-55
2022/01/16 12:45:38;;;;;;;45.33;21.23;;;;;;;;;;4396986;32;20335;-56
2022/01/16 12:48:05;;;;;;;31.23;16.03;;;;;;;;;;4395793;32;20233;-53
2022/01/16 12:50:30;;;;;;;32.30;18.60;;;;;;;;;;4395995;32;20308;-54
2022/01/16 12:52:56;;;;;;;34.70;17.20;;;;;;;;;;4393831;32;20217;-53
2022/01/16 12:55:29;;;;;;;30.43;17.43;;;;;;;;;;4405592;32;20416;-54
2022/01/16 12:58:14;;;;;;;36.33;17.43;;;;;;;;;;4396369;32;20213;-54
2022/01/16 13:01:05;;;;;;;32.70;19.93;;;;;;;;;;4392289;32;20672;-55
2022/01/16 13:03:33;;;;;;;39.03;21.33;;;;;;;;;;4388187;32;20301;-54
2022/01/16 13:06:13;;;;;;;29.13;17.67;;;;;;;;;;4405176;32;20241;-54
2022/01/16 13:08:51;;;;;;;35.43;16.03;;;;;;;;;;4387239;32;20304;-55
2022/01/16 13:11:17;;;;;;;29.80;15.00;;;;;;;;;;4393660;32;20641;-53
2022/01/16 13:13:42;;;;;;;26.67;14.27;;;;;;;;;;4405276;32;20280;-53
2022/01/16 13:16:27;;;;;;;31.60;15.40;;;;;;;;;;4415488;32;20751;-54
2022/01/16 13:19:05;;;;;;;29.67;17.50;;;;;;;;;;4396348;32;20237;-54
2022/01/16 13:24:47;;;;;;;23.10;14.07;;;;;;;;;;4385625;32;20213;-57
2022/01/16 13:27:27;;;;;;;35.00;17.00;;;;;;;;;;4385896;32;20386;-54
2022/01/16 13:29:58;;;;;;;21.53;11.40;;;;;;;;;;4399886;32;20748;-54
2022/01/16 13:32:32;;;;;;;41.27;17.73;;;;;;;;;;4403347;32;20266;-53
2022/01/16 13:34:58;;;;;;;30.30;17.70;;;;;;;;;;4387629;32;20198;-54
2022/01/16 13:37:28;;;;;;;36.63;22.57;;;;;;;;;;4393304;32;20640;-54
2022/01/16 13:40:06;;;;;;;36.03;18.63;;;;;;;;;;4385249;32;20337;-54
2022/01/16 13:42:53;;;;;;;31.00;17.53;;;;;;;;;;4391733;32;20226;-54
2022/01/16 13:45:35;;;;;;;32.53;16.83;;;;;;;;;;4391409;32;20230;-55
2022/01/16 13:48:10;;;;;;;32.07;16.93;;;;;;;;;;4390019;32;20313;-55
2022/01/16 13:50:43;;;;;;;41.00;18.33;;;;;;;;;;4396446;32;20233;-54
2022/01/16 13:53:10;;;;;;;32.93;18.73;;;;;;;;;;4404296;32;20222;-55
2022/01/16 13:55:50;;;;;;;34.07;17.03;;;;;;;;;;4410524;32;20601;-54
2022/01/16 13:58:19;;;;;;;36.97;19.17;;;;;;;;;;4388519;32;20694;-54
2022/01/16 14:00:45;;;;;;;32.20;18.37;;;;;;;;;;4404455;32;20321;-53
2022/01/16 14:03:13;;;;;;;41.63;18.97;;;;;;;;;;4386164;32;20661;-54
2022/01/16 14:05:50;;;;;;;37.47;20.60;;;;;;;;;;4397064;32;20676;-54
2022/01/16 14:08:19;;;;;;;46.47;21.60;;;;;;;;;;4392729;32;20574;-54
2022/01/16 14:10:44;;;;;;;39.03;20.57;;;;;;;;;;4391394;32;20267;-54
2022/01/16 14:13:10;;;;;;;44.30;21.53;;;;;;;;;;4396350;32;20312;-54
2022/01/16 14:15:39;;;;;;;37.90;19.63;;;;;;;;;;4400532;32;20503;-53
2022/01/16 14:18:12;;;;;;;40.10;23.67;;;;;;;;;;4403869;32;20287;-53
2022/01/16 14:20:52;;;;;;;43.73;25.00;;;;;;;;;;4416172;32;20324;-54
2022/01/16 14:23:18;;;;;;;45.47;24.97;;;;;;;;;;4391370;32;20312;-53
2022/01/16 14:25:44;;;;;;;39.07;22.37;;;;;;;;;;4392386;32;20664;-54
2022/01/16 14:28:10;;;;;;;51.80;24.67;;;;;;;;;;4391136;32;20395;-53
2022/01/16 14:30:35;;;;;;;41.37;23.47;;;;;;;;;;4405992;32;20294;-53
2022/01/16 14:33:01;;;;;;;70.80;38.43;;;;;;;;;;4395337;32;20389;-54
2022/01/16 14:35:27;;;;;;;83.57;42.43;;;;;;;;;;4399421;32;20224;-53
2022/01/16 14:37:52;;;;;;;99.70;46.57;;;;;;;;;;4396869;32;21175;-53
2022/01/16 14:40:18;;;;;;;94.60;46.17;;;;;;;;;;4392025;32;20341;-53
2022/01/16 14:42:45;;;;;;;89.07;48.30;;;;;;;;;;4398947;32;20316;-52
2022/01/16 14:45:11;;;;;;;105.37;48.83;;;;;;;;;;4389314;32;20373;-54
2022/01/16 14:47:37;;;;;;;94.73;50.47;;;;;;;;;;4399883;32;20277;-53
2022/01/16 14:50:04;;;;;;;91.17;51.20;;;;;;;;;;4388729;32;20316;-54
2022/01/16 14:52:30;;;;;;;110.03;53.73;;;;;;;;;;4401529;32;20226;-56
2022/01/16 14:54:56;;;;;;;100.83;50.63;;;;;;;;;;4388665;32;20373;-53
2022/01/16 14:57:22;;;;;;;75.37;39.67;;;;;;;;;;4408829;32;20356;-54
2022/01/16 14:59:50;;;;;;;99.30;54.07;;;;;;;;;;4402951;32;20303;-53
2022/01/16 15:02:18;;;;;;;103.07;54.70;;;;;;;;;;4406565;32;20218;-55
2022/01/16 15:04:44;;;;;;;105.23;56.80;;;;;;;;;;4397230;32;20214;-53
2022/01/16 15:07:10;;;;;;;115.27;57.53;;;;;;;;;;4407146;32;20388;-53
2022/01/16 15:09:36;;;;;;;107.63;58.77;;;;;;;;;;4404130;32;20311;-54
2022/01/16 15:12:02;;;;;;;123.63;60.10;;;;;;;;;;4409102;32;20303;-53